Pagina principală
METAR-TAF:

METAR-TAF

Aeroporturi :

Reyes, Bolivia

Latitudine: 14-19S, longitudine: 067-23W, elevație: 140 m

Observații meteo curente

Raportul a fost făcut în urmă cu 38 de minute, la 19:00 UTC
Vânt 8 kt de la Nord/Nord-vest
Temperatură 32°C
Umiditate 75%
Presiune 1008 hPa
Vizibilitate de 10 km sau mai mult
Nori împrăștiați la o înălțime de 1500 picior
Nori împrăștiați la o înălțime de 20000 picior

METAR: SLRY 161900Z 34008KT 9999 SCT015 SCT200 32/27 Q1008

Ora: 15:38 (19:38 UTC)


TAF: lipsă

Observații și prognoze meteo pentru peste 4.000 de aeroporturi (rapoarte METAR și TAF).

Stațiile disponibile sunt reprezentate pe hartă prin puncte galbene și roșii.

Țineți indicatorul mouse-ului pe punctul dorit pentru a vedea denumirea stației.

Apoi, faceți clic pentru a vedea observațiile și prognozele meteorologice.

Pentru a schimba harta: Pentru mărire, faceți clic pe butoanele verzi cu cruce neagră; pentru micșorare, pe butonul verde cu o liniuță; pentru hărți învecinate, pe săgețile verzi.


METAR-TAF: